sensor_id;sensor_type;location;lat;lon;timestamp;pressure;altitude;pressure_sealevel;temperature;humidity
54882;BME280;40775;51.448;4.742;2023-04-20T00:01:47;102167.28;;;9.32;92.24
54882;BME280;40775;51.448;4.742;2023-04-20T00:04:14;102168.75;;;9.27;92.90
54882;BME280;40775;51.448;4.742;2023-04-20T00:06:42;102166.16;;;9.27;93.81
54882;BME280;40775;51.448;4.742;2023-04-20T00:09:13;102164.34;;;9.26;93.50
54882;BME280;40775;51.448;4.742;2023-04-20T00:11:41;102164.69;;;9.14;96.40
54882;BME280;40775;51.448;4.742;2023-04-20T00:14:08;102158.47;;;9.12;96.98
54882;BME280;40775;51.448;4.742;2023-04-20T00:16:35;102159.38;;;9.13;96.26
54882;BME280;40775;51.448;4.742;2023-04-20T00:19:02;102149.50;;;9.07;95.60
54882;BME280;40775;51.448;4.742;2023-04-20T00:21:29;102147.53;;;9.03;95.42
54882;BME280;40775;51.448;4.742;2023-04-20T00:23:56;102150.84;;;8.99;95.54
54882;BME280;40775;51.448;4.742;2023-04-20T00:26:23;102145.59;;;8.99;95.95
54882;BME280;40775;51.448;4.742;2023-04-20T00:28:51;102143.06;;;9.01;96.03
54882;BME280;40775;51.448;4.742;2023-04-20T00:31:19;102136.50;;;8.91;96.23
54882;BME280;40775;51.448;4.742;2023-04-20T00:33:47;102144.28;;;8.89;95.35
54882;BME280;40775;51.448;4.742;2023-04-20T00:36:14;102123.34;;;8.89;94.28
54882;BME280;40775;51.448;4.742;2023-04-20T00:38:41;102137.25;;;8.88;95.16
54882;BME280;40775;51.448;4.742;2023-04-20T00:41:08;102129.78;;;8.78;95.91
54882;BME280;40775;51.448;4.742;2023-04-20T00:43:36;102137.31;;;8.72;96.76
54882;BME280;40775;51.448;4.742;2023-04-20T00:46:03;102133.44;;;8.64;100.00
54882;BME280;40775;51.448;4.742;2023-04-20T00:48:30;102127.84;;;8.56;100.00
54882;BME280;40775;51.448;4.742;2023-04-20T00:50:57;102140.38;;;8.46;100.00
54882;BME280;40775;51.448;4.742;2023-04-20T00:53:24;102126.34;;;8.44;100.00
54882;BME280;40775;51.448;4.742;2023-04-20T00:55:52;102124.09;;;8.33;100.00
54882;BME280;40775;51.448;4.742;2023-04-20T00:58:19;102132.44;;;8.26;100.00
54882;BME280;40775;51.448;4.742;2023-04-20T01:00:47;102130.63;;;8.25;100.00
54882;BME280;40775;51.448;4.742;2023-04-20T01:03:14;102125.97;;;8.20;100.00
54882;BME280;40775;51.448;4.742;2023-04-20T01:05:41;102124.09;;;8.33;100.00
54882;BME280;40775;51.448;4.742;2023-04-20T01:08:08;102124.81;;;8.31;100.00
54882;BME280;40775;51.448;4.742;2023-04-20T01:10:36;102117.94;;;8.33;100.00
54882;BME280;40775;51.448;4.742;2023-04-20T01:13:03;102121.81;;;8.23;100.00
54882;BME280;40775;51.448;4.742;2023-04-20T01:15:30;102112.47;;;8.28;100.00
54882;BME280;40775;51.448;4.742;2023-04-20T01:17:57;102109.63;;;8.24;100.00
54882;BME280;40775;51.448;4.742;2023-04-20T01:20:24;102103.50;;;8.23;100.00
54882;BME280;40775;51.448;4.742;2023-04-20T01:22:52;102106.69;;;8.18;100.00
54882;BME280;40775;51.448;4.742;2023-04-20T01:25:22;102094.34;;;8.15;100.00
54882;BME280;40775;51.448;4.742;2023-04-20T01:27:49;102092.78;;;8.01;100.00
54882;BME280;40775;51.448;4.742;2023-04-20T01:30:16;102089.53;;;7.89;100.00
54882;BME280;40775;51.448;4.742;2023-04-20T01:32:43;102087.97;;;7.92;100.00
54882;BME280;40775;51.448;4.742;2023-04-20T01:35:11;102088.53;;;7.87;100.00
54882;BME280;40775;51.448;4.742;2023-04-20T01:37:39;102075.69;;;7.73;100.00
54882;BME280;40775;51.448;4.742;2023-04-20T01:40:11;102078.44;;;7.77;100.00
54882;BME280;40775;51.448;4.742;2023-04-20T01:42:39;102073.16;;;7.75;100.00
54882;BME280;40775;51.448;4.742;2023-04-20T01:45:07;102071.50;;;7.77;100.00
54882;BME280;40775;51.448;4.742;2023-04-20T01:47:34;102062.75;;;7.77;100.00
54882;BME280;40775;51.448;4.742;2023-04-20T01:50:01;102060.16;;;7.77;100.00
54882;BME280;40775;51.448;4.742;2023-04-20T01:52:28;102065.38;;;7.77;100.00
54882;BME280;40775;51.448;4.742;2023-04-20T01:54:56;102065.63;;;7.65;100.00
54882;BME280;40775;51.448;4.742;2023-04-20T01:57:23;102061.16;;;7.62;100.00
54882;BME280;40775;51.448;4.742;2023-04-20T01:59:50;102059.34;;;7.61;100.00
54882;BME280;40775;51.448;4.742;2023-04-20T02:02:17;102048.59;;;7.55;100.00
54882;BME280;40775;51.448;4.742;2023-04-20T02:04:44;102051.19;;;7.55;100.00
54882;BME280;40775;51.448;4.742;2023-04-20T02:07:11;102045.47;;;7.62;100.00
54882;BME280;40775;51.448;4.742;2023-04-20T02:09:38;102044.00;;;7.67;100.00
54882;BME280;40775;51.448;4.742;2023-04-20T02:12:05;102045.34;;;7.43;100.00
54882;BME280;40775;51.448;4.742;2023-04-20T02:14:32;102038.00;;;7.36;100.00
54882;BME280;40775;51.448;4.742;2023-04-20T02:17:00;102027.22;;;7.30;100.00
54882;BME280;40775;51.448;4.742;2023-04-20T02:19:27;102036.19;;;7.35;100.00
54882;BME280;40775;51.448;4.742;2023-04-20T02:21:54;102036.38;;;7.22;100.00
54882;BME280;40775;51.448;4.742;2023-04-20T02:24:21;102031.09;;;7.20;100.00
54882;BME280;40775;51.448;4.742;2023-04-20T02:26:48;102031.97;;;7.21;100.00
54882;BME280;40775;51.448;4.742;2023-04-20T02:29:16;102026.59;;;7.18;100.00
54882;BME280;40775;51.448;4.742;2023-04-20T02:31:43;102017.28;;;7.06;100.00
54882;BME280;40775;51.448;4.742;2023-04-20T02:34:11;102020.41;;;7.16;100.00
54882;BME280;40775;51.448;4.742;2023-04-20T02:36:38;102011.91;;;7.20;100.00
54882;BME280;40775;51.448;4.742;2023-04-20T02:39:05;102008.63;;;7.07;100.00
54882;BME280;40775;51.448;4.742;2023-04-20T02:41:32;102007.25;;;7.14;100.00
54882;BME280;40775;51.448;4.742;2023-04-20T02:43:59;101995.03;;;7.13;100.00
54882;BME280;40775;51.448;4.742;2023-04-20T02:46:26;101996.63;;;7.11;100.00
54882;BME280;40775;51.448;4.742;2023-04-20T02:48:53;101999.50;;;7.16;100.00
54882;BME280;40775;51.448;4.742;2023-04-20T02:51:22;101992.31;;;7.11;100.00
54882;BME280;40775;51.448;4.742;2023-04-20T02:53:49;101995.56;;;7.07;100.00
54882;BME280;40775;51.448;4.742;2023-04-20T02:56:16;101979.50;;;7.16;100.00
54882;BME280;40775;51.448;4.742;2023-04-20T02:58:43;101988.25;;;7.17;100.00
54882;BME280;40775;51.448;4.742;2023-04-20T03:01:10;101974.84;;;7.10;100.00
54882;BME280;40775;51.448;4.742;2023-04-20T03:03:37;101982.94;;;7.15;100.00
54882;BME280;40775;51.448;4.742;2023-04-20T03:06:05;101977.22;;;7.22;100.00
54882;BME280;40775;51.448;4.742;2023-04-20T03:08:32;101973.84;;;7.25;100.00
54882;BME280;40775;51.448;4.742;2023-04-20T03:10:59;101974.97;;;7.46;100.00
54882;BME280;40775;51.448;4.742;2023-04-20T03:13:26;101965.72;;;7.53;100.00
54882;BME280;40775;51.448;4.742;2023-04-20T03:15:53;101978.84;;;7.54;100.00
54882;BME280;40775;51.448;4.742;2023-04-20T03:18:20;101960.94;;;7.62;100.00
54882;BME280;40775;51.448;4.742;2023-04-20T03:20:47;101956.47;;;7.59;100.00
54882;BME280;40775;51.448;4.742;2023-04-20T03:23:14;101962.72;;;7.63;100.00
54882;BME280;40775;51.448;4.742;2023-04-20T03:25:41;101956.47;;;7.59;100.00
54882;BME280;40775;51.448;4.742;2023-04-20T03:28:09;101954.59;;;7.57;100.00
54882;BME280;40775;51.448;4.742;2023-04-20T03:30:36;101953.03;;;7.60;100.00
54882;BME280;40775;51.448;4.742;2023-04-20T03:33:03;101947.19;;;7.48;100.00
54882;BME280;40775;51.448;4.742;2023-04-20T03:35:30;101953.47;;;7.52;100.00
54882;BME280;40775;51.448;4.742;2023-04-20T03:37:57;101962.88;;;7.48;100.00
54882;BME280;40775;51.448;4.742;2023-04-20T03:40:25;101943.78;;;7.49;100.00
54882;BME280;40775;51.448;4.742;2023-04-20T03:42:52;101956.38;;;7.40;100.00
54882;BME280;40775;51.448;4.742;2023-04-20T03:45:19;101949.09;;;7.34;100.00
54882;BME280;40775;51.448;4.742;2023-04-20T03:47:46;101951.59;;;7.49;100.00
54882;BME280;40775;51.448;4.742;2023-04-20T03:50:13;101945.56;;;7.50;100.00
54882;BME280;40775;51.448;4.742;2023-04-20T03:52:40;101943.84;;;7.51;100.00
54882;BME280;40775;51.448;4.742;2023-04-20T03:55:08;101945.56;;;7.50;100.00
54882;BME280;40775;51.448;4.742;2023-04-20T03:57:35;101944.91;;;7.72;100.00
54882;BME280;40775;51.448;4.742;2023-04-20T04:00:02;101945.28;;;7.80;100.00
54882;BME280;40775;51.448;4.742;2023-04-20T04:02:30;101938.47;;;7.83;100.00
54882;BME280;40775;51.448;4.742;2023-04-20T04:04:57;101932.88;;;7.93;100.00
54882;BME280;40775;51.448;4.742;2023-04-20T04:07:25;101929.81;;;7.84;100.00
54882;BME280;40775;51.448;4.742;2023-04-20T04:09:52;101917.84;;;7.89;100.00
54882;BME280;40775;51.448;4.742;2023-04-20T04:12:19;101920.88;;;7.97;100.00
54882;BME280;40775;51.448;4.742;2023-04-20T04:14:46;101917.09;;;7.92;100.00
54882;BME280;40775;51.448;4.742;2023-04-20T04:17:14;101915.56;;;7.95;100.00
54882;BME280;40775;51.448;4.742;2023-04-20T04:19:41;101913.16;;;8.00;100.00
54882;BME280;40775;51.448;4.742;2023-04-20T04:22:09;101909.59;;;7.98;100.00
54882;BME280;40775;51.448;4.742;2023-04-20T04:24:36;101906.28;;;8.02;100.00
54882;BME280;40775;51.448;4.742;2023-04-20T04:27:04;101903.00;;;8.06;100.00
54882;BME280;40775;51.448;4.742;2023-04-20T04:29:34;101899.56;;;8.07;100.00
54882;BME280;40775;51.448;4.742;2023-04-20T04:32:03;101894.47;;;8.10;100.00
54882;BME280;40775;51.448;4.742;2023-04-20T04:34:30;101895.34;;;8.11;100.00
54882;BME280;40775;51.448;4.742;2023-04-20T04:36:59;101895.06;;;8.04;100.00
54882;BME280;40775;51.448;4.742;2023-04-20T04:39:27;101889.66;;;8.19;100.00
54882;BME280;40775;51.448;4.742;2023-04-20T04:41:54;101880.38;;;8.26;100.00
54882;BME280;40775;51.448;4.742;2023-04-20T04:44:21;101881.09;;;8.22;100.00
54882;BME280;40775;51.448;4.742;2023-04-20T04:46:48;101875.16;;;8.26;100.00
54882;BME280;40775;51.448;4.742;2023-04-20T04:49:16;101878.28;;;8.36;100.00
54882;BME280;40775;51.448;4.742;2023-04-20T04:51:44;101872.50;;;8.44;100.00
54882;BME280;40775;51.448;4.742;2023-04-20T04:54:13;101876.63;;;8.39;100.00
54882;BME280;40775;51.448;4.742;2023-04-20T04:56:40;101870.78;;;8.44;100.00
54882;BME280;40775;51.448;4.742;2023-04-20T04:59:07;101878.28;;;8.36;100.00
54882;BME280;40775;51.448;4.742;2023-04-20T05:01:34;101864.78;;;8.47;100.00
54882;BME280;40775;51.448;4.742;2023-04-20T05:04:01;101855.66;;;8.56;100.00
54882;BME280;40775;51.448;4.742;2023-04-20T05:06:28;101857.22;;;8.53;100.00
54882;BME280;40775;51.448;4.742;2023-04-20T05:08:55;101850.88;;;8.48;100.00
54882;BME280;40775;51.448;4.742;2023-04-20T05:11:22;101844.16;;;8.53;100.00
54882;BME280;40775;51.448;4.742;2023-04-20T05:13:49;101843.31;;;8.54;100.00
54882;BME280;40775;51.448;4.742;2023-04-20T05:16:17;101840.06;;;8.59;100.00
54882;BME280;40775;51.448;4.742;2023-04-20T05:18:44;101842.31;;;8.71;100.00
54882;BME280;40775;51.448;4.742;2023-04-20T05:21:11;101842.50;;;8.76;100.00
54882;BME280;40775;51.448;4.742;2023-04-20T05:23:38;101850.19;;;8.71;100.00
54882;BME280;40775;51.448;4.742;2023-04-20T05:26:05;101841.63;;;8.75;100.00
54882;BME280;40775;51.448;4.742;2023-04-20T05:28:33;101844.25;;;8.75;100.00
54882;BME280;40775;51.448;4.742;2023-04-20T05:31:00;101835.50;;;8.75;100.00
54882;BME280;40775;51.448;4.742;2023-04-20T05:33:28;101840.97;;;8.79;100.00
54882;BME280;40775;51.448;4.742;2023-04-20T05:35:56;101840.88;;;8.78;100.00
54882;BME280;40775;51.448;4.742;2023-04-20T05:38:23;101829.78;;;8.83;100.00
54882;BME280;40775;51.448;4.742;2023-04-20T05:40:51;101835.16;;;8.86;100.00
54882;BME280;40775;51.448;4.742;2023-04-20T05:43:18;101837.56;;;8.82;100.00
54882;BME280;40775;51.448;4.742;2023-04-20T05:45:45;101844.06;;;9.75;100.00
54882;BME280;40775;51.448;4.742;2023-04-20T05:48:13;101842.84;;;11.85;100.00
54882;BME280;40775;51.448;4.742;2023-04-20T05:50:40;101849.09;;;13.13;100.00
54882;BME280;40775;51.448;4.742;2023-04-20T05:53:08;101852.88;;;13.93;100.00
54882;BME280;40775;51.448;4.742;2023-04-20T05:55:35;101847.50;;;14.28;100.00
54882;BME280;40775;51.448;4.742;2023-04-20T05:58:02;101849.69;;;14.48;100.00
54882;BME280;40775;51.448;4.742;2023-04-20T06:00:29;101848.31;;;14.67;100.00
54882;BME280;40775;51.448;4.742;2023-04-20T06:02:56;101844.97;;;14.76;100.00
54882;BME280;40775;51.448;4.742;2023-04-20T06:05:23;101855.91;;;14.94;100.00
54882;BME280;40775;51.448;4.742;2023-04-20T06:07:50;101850.50;;;14.88;100.00
54882;BME280;40775;51.448;4.742;2023-04-20T06:10:17;101840.69;;;14.81;100.00
54882;BME280;40775;51.448;4.742;2023-04-20T06:12:44;101845.25;;;14.90;100.00
54882;BME280;40775;51.448;4.742;2023-04-20T06:15:12;101847.16;;;14.98;100.00
54882;BME280;40775;51.448;4.742;2023-04-20T06:17:39;101840.41;;;15.14;100.00
54882;BME280;40775;51.448;4.742;2023-04-20T06:20:09;101828.22;;;15.24;100.00
54882;BME280;40775;51.448;4.742;2023-04-20T06:22:42;101819.50;;;15.31;100.00
54882;BME280;40775;51.448;4.742;2023-04-20T06:25:12;101810.88;;;15.41;100.00
54882;BME280;40775;51.448;4.742;2023-04-20T06:27:41;101808.31;;;15.47;100.00
54882;BME280;40775;51.448;4.742;2023-04-20T06:30:08;101799.63;;;15.57;100.00
54882;BME280;40775;51.448;4.742;2023-04-20T06:32:36;101790.97;;;15.64;100.00
54882;BME280;40775;51.448;4.742;2023-04-20T06:35:07;101794.63;;;15.72;100.00
54882;BME280;40775;51.448;4.742;2023-04-20T06:37:35;101791.13;;;15.76;100.00
54882;BME280;40775;51.448;4.742;2023-04-20T06:40:03;101790.34;;;15.84;100.00
54882;BME280;40775;51.448;4.742;2023-04-20T06:42:35;101791.28;;;15.87;100.00
54882;BME280;40775;51.448;4.742;2023-04-20T06:45:04;101791.38;;;15.92;100.00
54882;BME280;40775;51.448;4.742;2023-04-20T06:47:32;101780.81;;;15.96;100.00
54882;BME280;40775;51.448;4.742;2023-04-20T06:50:02;101779.97;;;15.99;100.00
54882;BME280;40775;51.448;4.742;2023-04-20T06:52:30;101784.44;;;16.03;100.00
54882;BME280;40775;51.448;4.742;2023-04-20T06:54:58;101790.66;;;16.06;100.00
54882;BME280;40775;51.448;4.742;2023-04-20T06:57:25;101788.94;;;16.10;100.00
54882;BME280;40775;51.448;4.742;2023-04-20T06:59:52;101779.25;;;16.12;100.00
54882;BME280;40775;51.448;4.742;2023-04-20T07:02:19;101778.41;;;16.15;100.00
54882;BME280;40775;51.448;4.742;2023-04-20T07:04:47;101777.53;;;16.16;100.00
54882;BME280;40775;51.448;4.742;2023-04-20T07:07:14;101778.47;;;16.18;100.00
54882;BME280;40775;51.448;4.742;2023-04-20T07:09:41;101776.72;;;16.20;100.00
54882;BME280;40775;51.448;4.742;2023-04-20T07:12:11;101775.88;;;16.22;100.00
54882;BME280;40775;51.448;4.742;2023-04-20T07:14:41;101773.22;;;16.24;100.00
54882;BME280;40775;51.448;4.742;2023-04-20T07:17:09;101775.91;;;16.25;100.00
54882;BME280;40775;51.448;4.742;2023-04-20T07:19:36;101772.38;;;16.26;100.00
54882;BME280;40775;51.448;4.742;2023-04-20T07:22:03;101764.44;;;16.28;100.00
54882;BME280;40775;51.448;4.742;2023-04-20T07:24:30;101767.09;;;16.29;100.00
54882;BME280;40775;51.448;4.742;2023-04-20T07:26:57;101768.88;;;16.30;100.00
54882;BME280;40775;51.448;4.742;2023-04-20T07:29:24;101773.34;;;16.34;100.00
54882;BME280;40775;51.448;4.742;2023-04-20T07:31:51;101766.25;;;16.33;100.00
54882;BME280;40775;51.448;4.742;2023-04-20T07:34:18;101761.84;;;16.34;100.00
54882;BME280;40775;51.448;4.742;2023-04-20T07:36:45;101762.75;;;16.34;100.00
54882;BME280;40775;51.448;4.742;2023-04-20T07:39:12;101767.16;;;16.34;100.00
54882;BME280;40775;51.448;4.742;2023-04-20T07:41:41;101760.09;;;16.34;100.00
54882;BME280;40775;51.448;4.742;2023-04-20T07:44:11;101760.09;;;16.36;100.00
54882;BME280;40775;51.448;4.742;2023-04-20T07:46:38;101761.00;;;16.36;100.00
54882;BME280;40775;51.448;4.742;2023-04-20T07:49:06;101761.88;;;16.35;100.00
54882;BME280;40775;51.448;4.742;2023-04-20T07:51:33;101761.00;;;16.38;100.00
54882;BME280;40775;51.448;4.742;2023-04-20T07:54:01;101768.06;;;16.36;100.00
54882;BME280;40775;51.448;4.742;2023-04-20T07:56:28;101760.13;;;16.39;100.00
54882;BME280;40775;51.448;4.742;2023-04-20T07:58:56;101754.84;;;16.39;100.00
54882;BME280;40775;51.448;4.742;2023-04-20T08:01:23;101761.91;;;16.40;100.00
54882;BME280;40775;51.448;4.742;2023-04-20T08:03:51;101764.56;;;16.42;100.00
54882;BME280;40775;51.448;4.742;2023-04-20T08:06:21;101758.41;;;16.43;100.00
54882;BME280;40775;51.448;4.742;2023-04-20T08:08:48;101749.63;;;16.44;100.00
54882;BME280;40775;51.448;4.742;2023-04-20T08:11:15;101753.16;;;16.44;100.00
54882;BME280;40775;51.448;4.742;2023-04-20T08:13:42;101745.16;;;16.43;100.00
54882;BME280;40775;51.448;4.742;2023-04-20T08:16:09;101748.69;;;16.42;100.00
54882;BME280;40775;51.448;4.742;2023-04-20T08:18:36;101747.81;;;16.43;100.00
54882;BME280;40775;51.448;4.742;2023-04-20T08:21:03;101742.41;;;16.32;100.00
54882;BME280;40775;51.448;4.742;2023-04-20T08:23:30;101744.22;;;16.37;100.00
54882;BME280;40775;51.448;4.742;2023-04-20T08:25:57;101738.06;;;16.40;100.00
54882;BME280;40775;51.448;4.742;2023-04-20T08:28:24;101730.13;;;16.43;100.00
54882;BME280;40775;51.448;4.742;2023-04-20T08:31:00;101725.75;;;16.44;100.00
54882;BME280;40775;51.448;4.742;2023-04-20T08:33:27;101730.19;;;16.45;100.00
54882;BME280;40775;51.448;4.742;2023-04-20T08:35:54;101728.44;;;16.45;100.00
54882;BME280;40775;51.448;4.742;2023-04-20T08:38:21;101727.53;;;16.45;100.00
54882;BME280;40775;51.448;4.742;2023-04-20T08:41:00;101724.84;;;16.43;100.00
54882;BME280;40775;51.448;4.742;2023-04-20T08:43:28;101721.34;;;16.44;100.00
54882;BME280;40775;51.448;4.742;2023-04-20T08:45:59;101713.34;;;16.41;100.00
54882;BME280;40775;51.448;4.742;2023-04-20T08:48:36;101723.13;;;16.44;100.00
54882;BME280;40775;51.448;4.742;2023-04-20T08:51:04;101724.81;;;16.42;100.00
54882;BME280;40775;51.448;4.742;2023-04-20T08:53:31;101725.75;;;16.44;100.00
54882;BME280;40775;51.448;4.742;2023-04-20T08:55:59;101723.13;;;16.45;100.00
54882;BME280;40775;51.448;4.742;2023-04-20T08:58:31;101720.47;;;16.45;100.00
54882;BME280;40775;51.448;4.742;2023-04-20T09:00:58;101719.59;;;16.46;100.00
54882;BME280;40775;51.448;4.742;2023-04-20T09:03:40;101722.25;;;16.46;100.00
54882;BME280;40775;51.448;4.742;2023-04-20T09:06:17;101719.59;;;16.46;100.00
54882;BME280;40775;51.448;4.742;2023-04-20T09:08:45;101717.84;;;16.47;100.00
54882;BME280;40775;51.448;4.742;2023-04-20T09:11:22;101711.66;;;16.46;100.00
54882;BME280;40775;51.448;4.742;2023-04-20T09:14:15;101709.88;;;16.47;100.00
54882;BME280;40775;51.448;4.742;2023-04-20T09:16:51;101699.28;;;16.47;100.00
54882;BME280;40775;51.448;4.742;2023-04-20T09:19:26;101712.56;;;16.48;100.00
54882;BME280;40775;51.448;4.742;2023-04-20T09:21:57;101701.94;;;16.48;100.00
54882;BME280;40775;51.448;4.742;2023-04-20T09:24:33;101709.00;;;16.48;100.00
54882;BME280;40775;51.448;4.742;2023-04-20T09:27:01;101708.13;;;16.47;100.00
54882;BME280;40775;51.448;4.742;2023-04-20T09:29:29;101691.34;;;16.47;100.00
54882;BME280;40775;51.448;4.742;2023-04-20T09:31:56;101687.78;;;16.46;100.00
54882;BME280;40775;51.448;4.742;2023-04-20T09:34:23;101686.91;;;16.46;100.00
54882;BME280;40775;51.448;4.742;2023-04-20T09:36:51;101689.56;;;16.47;100.00
54882;BME280;40775;51.448;4.742;2023-04-20T09:39:23;101688.69;;;16.47;100.00
54882;BME280;40775;51.448;4.742;2023-04-20T09:41:51;101686.03;;;16.48;100.00
54882;BME280;40775;51.448;4.742;2023-04-20T09:44:19;101685.16;;;16.49;100.00
54882;BME280;40775;51.448;4.742;2023-04-20T09:46:46;101681.63;;;16.49;100.00
54882;BME280;40775;51.448;4.742;2023-04-20T09:49:13;101681.63;;;16.49;100.00
54882;BME280;40775;51.448;4.742;2023-04-20T09:51:42;101680.75;;;16.50;100.00
54882;BME280;40775;51.448;4.742;2023-04-20T09:54:13;101686.94;;;16.50;100.00
54882;BME280;40775;51.448;4.742;2023-04-20T09:56:42;101666.63;;;16.49;100.00
54882;BME280;40775;51.448;4.742;2023-04-20T09:59:09;101656.91;;;16.50;100.00
54882;BME280;40775;51.448;4.742;2023-04-20T10:01:36;101661.31;;;16.51;100.00
54882;BME280;40775;51.448;4.742;2023-04-20T10:04:07;101652.47;;;16.50;100.00
54882;BME280;40775;51.448;4.742;2023-04-20T10:06:36;101647.19;;;16.52;100.00
54882;BME280;40775;51.448;4.742;2023-04-20T10:09:07;101653.38;;;16.52;100.00
54882;BME280;40775;51.448;4.742;2023-04-20T10:11:37;101646.28;;;16.50;100.00
54882;BME280;40775;51.448;4.742;2023-04-20T10:14:24;101636.59;;;16.50;100.00
54882;BME280;40775;51.448;4.742;2023-04-20T10:17:06;101633.06;;;16.51;100.00
54882;BME280;40775;51.448;4.742;2023-04-20T10:19:44;101643.66;;;16.51;100.00
54882;BME280;40775;51.448;4.742;2023-04-20T10:22:30;101644.53;;;16.52;100.00
54882;BME280;40775;51.448;4.742;2023-04-20T10:25:14;101635.69;;;16.50;100.00
54882;BME280;40775;51.448;4.742;2023-04-20T10:27:58;101636.59;;;16.50;100.00
54882;BME280;40775;51.448;4.742;2023-04-20T10:30:27;101635.69;;;16.50;100.00
54882;BME280;40775;51.448;4.742;2023-04-20T10:33:09;101633.94;;;16.50;100.00
54882;BME280;40775;51.448;4.742;2023-04-20T10:35:53;101641.88;;;16.50;100.00
54882;BME280;40775;51.448;4.742;2023-04-20T10:38:33;101637.47;;;16.52;100.00
54882;BME280;40775;51.448;4.742;2023-04-20T10:41:11;101626.00;;;16.52;100.00
54882;BME280;40775;51.448;4.742;2023-04-20T10:43:39;101636.59;;;16.53;100.00
54882;BME280;40775;51.448;4.742;2023-04-20T10:46:23;101633.06;;;16.54;100.00
54882;BME280;40775;51.448;4.742;2023-04-20T10:49:00;101632.19;;;16.54;100.00
54882;BME280;40775;51.448;4.742;2023-04-20T10:51:27;101623.31;;;16.50;100.00
54882;BME280;40775;51.448;4.742;2023-04-20T10:54:12;101629.50;;;16.49;100.00
54882;BME280;40775;51.448;4.742;2023-04-20T10:56:50;101630.38;;;16.50;100.00
54882;BME280;40775;51.448;4.742;2023-04-20T10:59:21;101625.97;;;16.50;100.00
54882;BME280;40775;51.448;4.742;2023-04-20T11:01:50;101633.06;;;16.53;100.00
54882;BME280;40775;51.448;4.742;2023-04-20T11:04:17;101629.53;;;16.52;100.00
54882;BME280;40775;51.448;4.742;2023-04-20T11:06:54;101628.66;;;16.53;100.00
54882;BME280;40775;51.448;4.742;2023-04-20T11:09:24;101626.88;;;16.54;100.00
54882;BME280;40775;51.448;4.742;2023-04-20T11:12:01;101624.25;;;16.54;100.00
54882;BME280;40775;51.448;4.742;2023-04-20T11:14:32;101626.88;;;16.54;100.00
54882;BME280;40775;51.448;4.742;2023-04-20T11:17:00;101629.53;;;16.54;100.00
54882;BME280;40775;51.448;4.742;2023-04-20T11:19:33;101622.47;;;16.53;100.00
54882;BME280;40775;51.448;4.742;2023-04-20T11:22:02;101617.16;;;16.54;100.00
54882;BME280;40775;51.448;4.742;2023-04-20T11:24:31;101618.94;;;16.52;100.00
54882;BME280;40775;51.448;4.742;2023-04-20T11:27:01;101613.63;;;16.52;100.00
54882;BME280;40775;51.448;4.742;2023-04-20T11:29:37;101609.22;;;16.53;100.00
54882;BME280;40775;51.448;4.742;2023-04-20T11:32:07;101605.69;;;16.54;100.00
54882;BME280;40775;51.448;4.742;2023-04-20T11:34:38;101603.03;;;16.52;100.00
54882;BME280;40775;51.448;4.742;2023-04-20T11:37:08;101602.13;;;16.53;100.00
54882;BME280;40775;51.448;4.742;2023-04-20T11:39:36;101597.72;;;16.54;100.00
54882;BME280;40775;51.448;4.742;2023-04-20T11:42:04;101594.19;;;16.53;100.00
54882;BME280;40775;51.448;4.742;2023-04-20T11:44:32;101595.94;;;16.53;100.00
54882;BME280;40775;51.448;4.742;2023-04-20T11:47:00;101591.53;;;16.53;100.00
54882;BME280;40775;51.448;4.742;2023-04-20T11:49:28;101587.13;;;16.54;100.00
54882;BME280;40775;51.448;4.742;2023-04-20T11:51:55;101588.00;;;16.54;100.00
54882;BME280;40775;51.448;4.742;2023-04-20T11:54:22;101580.94;;;16.53;100.00
54882;BME280;40775;51.448;4.742;2023-04-20T11:56:50;101581.81;;;16.54;100.00
54882;BME280;40775;51.448;4.742;2023-04-20T11:59:17;101580.94;;;16.53;100.00
54882;BME280;40775;51.448;4.742;2023-04-20T12:01:46;101572.09;;;16.53;100.00
54882;BME280;40775;51.448;4.742;2023-04-20T12:04:14;101576.50;;;16.52;100.00
54882;BME280;40775;51.448;4.742;2023-04-20T12:06:43;101583.56;;;16.52;100.00
54882;BME280;40775;51.448;4.742;2023-04-20T12:09:10;101570.31;;;16.52;100.00
54882;BME280;40775;51.448;4.742;2023-04-20T12:11:39;101570.31;;;16.52;100.00
54882;BME280;40775;51.448;4.742;2023-04-20T12:14:06;101572.97;;;16.50;100.00
54882;BME280;40775;51.448;4.742;2023-04-20T12:16:33;101568.56;;;16.51;100.00
54882;BME280;40775;51.448;4.742;2023-04-20T12:19:00;101575.63;;;16.50;100.00
54882;BME280;40775;51.448;4.742;2023-04-20T12:21:28;101580.06;;;16.53;100.00
54882;BME280;40775;51.448;4.742;2023-04-20T12:23:55;101568.56;;;16.52;100.00
54882;BME280;40775;51.448;4.742;2023-04-20T12:26:23;101566.78;;;16.53;100.00
54882;BME280;40775;51.448;4.742;2023-04-20T12:29:03;101572.97;;;16.53;100.00
54882;BME280;40775;51.448;4.742;2023-04-20T12:31:30;101566.78;;;16.53;100.00
54882;BME280;40775;51.448;4.742;2023-04-20T12:33:57;101567.69;;;16.53;100.00
54882;BME280;40775;51.448;4.742;2023-04-20T12:36:24;101565.03;;;16.55;100.00
54882;BME280;40775;51.448;4.742;2023-04-20T12:38:52;101558.84;;;16.54;100.00
54882;BME280;40775;51.448;4.742;2023-04-20T12:41:21;101565.03;;;16.55;100.00
54882;BME280;40775;51.448;4.742;2023-04-20T12:43:50;101567.69;;;16.53;100.00
54882;BME280;40775;51.448;4.742;2023-04-20T12:46:17;101567.69;;;16.53;100.00
54882;BME280;40775;51.448;4.742;2023-04-20T12:48:44;101572.09;;;16.53;100.00
54882;BME280;40775;51.448;4.742;2023-04-20T12:51:12;101565.91;;;16.54;100.00
54882;BME280;40775;51.448;4.742;2023-04-20T12:53:40;101566.78;;;16.53;100.00